Time;durP1;ratioP1;P1;durP2;ratioP2;P2;SDS_P1;SDS_P2;PMS_P1;PMS_P2;Temp;Humidity;BMP_temperature;BMP_pressure;BME280_temperature;BME280_humidity;BME280_pressure;Samples;Min_cycle;Max_cycle;Signal;HPM_P1;HPM_P2
2022/10/02 00:01:22;;;;;;;18.60;6.57;;;11.70;99.90;;;;;;4932679;29;20162;-73
2022/10/02 00:03:48;;;;;;;20.88;5.97;;;11.60;99.90;;;;;;4925554;29;20065;-73
2022/10/02 00:06:22;;;;;;;17.98;6.43;;;11.70;99.90;;;;;;4927900;29;20044;-74
2022/10/02 00:08:52;;;;;;;15.73;5.75;;;11.70;99.90;;;;;;4918437;29;20078;-74
2022/10/02 00:11:42;;;;;;;18.23;5.70;;;11.70;99.90;;;;;;4958222;28;20089;-73
2022/10/02 00:14:15;;;;;;;23.42;5.88;;;11.70;99.90;;;;;;4923970;28;20044;-73
2022/10/02 00:16:45;;;;;;;19.95;6.15;;;11.70;99.90;;;;;;4926863;29;20039;-74
2022/10/02 00:19:15;;;;;;;19.67;6.53;;;11.70;99.90;;;;;;4923884;29;20060;-73
2022/10/02 00:21:53;;;;;;;19.00;5.85;;;11.70;99.90;;;;;;4924553;29;20487;-74
2022/10/02 00:25:02;;;;;;;18.00;5.07;;;11.70;99.90;;;;;;4949082;28;20063;-74
2022/10/02 00:27:41;;;;;;;17.65;5.20;;;11.70;99.90;;;;;;4904182;28;20063;-74
2022/10/02 00:30:11;;;;;;;16.50;4.10;;;11.70;99.90;;;;;;4938478;29;20566;-74
2022/10/02 00:33:05;;;;;;;15.50;5.05;;;11.70;99.90;;;;;;4914169;29;20047;-74
2022/10/02 00:35:49;;;;;;;15.63;4.63;;;11.70;99.90;;;;;;4925455;29;20044;-74
2022/10/02 00:38:36;;;;;;;16.50;4.43;;;11.70;99.90;;;;;;4928626;29;20133;-74
2022/10/02 00:41:30;;;;;;;13.55;4.68;;;11.70;99.90;;;;;;4928640;29;20420;-74
2022/10/02 00:44:15;;;;;;;18.00;4.63;;;11.60;99.90;;;;;;4933378;29;20058;-74
2022/10/02 00:46:52;;;;;;;15.90;4.32;;;11.60;99.90;;;;;;4926612;29;20491;-74
2022/10/02 00:49:36;;;;;;;12.95;3.78;;;11.60;99.90;;;;;;4927209;28;20106;-75
2022/10/02 00:52:08;;;;;;;16.48;4.30;;;11.60;99.90;;;;;;4929403;29;20062;-74
2022/10/02 00:55:08;;;;;;;12.35;3.47;;;11.50;99.90;;;;;;4909174;29;20098;-74
2022/10/02 00:57:52;;;;;;;13.77;3.72;;;11.50;99.90;;;;;;4903013;29;20040;-74
2022/10/02 01:00:19;;;;;;;12.45;3.28;;;11.60;99.90;;;;;;4917777;29;20489;-75
2022/10/02 01:02:53;;;;;;;15.02;3.40;;;11.50;99.90;;;;;;4915458;29;20051;-74
2022/10/02 01:05:20;;;;;;;12.13;3.50;;;11.50;99.90;;;;;;4921420;29;20056;-74
2022/10/02 01:07:50;;;;;;;14.68;3.55;;;11.50;99.90;;;;;;4902037;29;20131;-75
2022/10/02 01:10:16;;;;;;;10.15;3.08;;;11.50;99.90;;;;;;4917832;29;20122;-74
2022/10/02 01:12:42;;;;;;;12.65;3.13;;;11.50;99.90;;;;;;4914275;29;20503;-74
2022/10/02 01:15:17;;;;;;;13.52;3.83;;;11.50;99.90;;;;;;4881772;29;20051;-74
2022/10/02 01:17:44;;;;;;;12.93;3.80;;;11.50;99.90;;;;;;4910791;29;20050;-74
2022/10/02 01:20:24;;;;;;;11.63;3.33;;;11.50;99.90;;;;;;4916515;29;20119;-74
2022/10/02 01:23:06;;;;;;;11.98;3.25;;;11.50;99.90;;;;;;4902566;29;20514;-74
2022/10/02 01:25:32;;;;;;;9.30;2.97;;;11.50;99.90;;;;;;4914622;29;20044;-74
2022/10/02 01:27:59;;;;;;;12.50;2.90;;;11.50;99.90;;;;;;4912573;29;20491;-74
2022/10/02 01:30:24;;;;;;;12.25;3.13;;;11.50;99.90;;;;;;4889930;29;20560;-74
2022/10/02 01:32:56;;;;;;;14.05;3.45;;;11.50;99.90;;;;;;4901879;29;20040;-74
2022/10/02 01:35:26;;;;;;;13.63;2.72;;;11.50;99.90;;;;;;4913090;29;20056;-74
2022/10/02 01:37:54;;;;;;;10.45;2.58;;;11.50;99.90;;;;;;4893104;29;20039;-75
2022/10/02 01:40:46;;;;;;;9.73;2.70;;;11.60;99.90;;;;;;4914604;29;20103;-74
2022/10/02 01:43:14;;;;;;;14.20;2.95;;;11.60;99.90;;;;;;4912908;29;20537;-74
2022/10/02 01:46:03;;;;;;;9.90;2.60;;;11.60;99.90;;;;;;4902177;29;20039;-74
2022/10/02 01:48:38;;;;;;;9.70;2.50;;;11.70;99.90;;;;;;4907258;29;20135;-74
2022/10/02 01:51:20;;;;;;;9.20;2.22;;;11.70;99.90;;;;;;4932854;29;20410;-75
2022/10/02 01:54:12;;;;;;;9.57;2.92;;;11.60;99.90;;;;;;4909812;29;20250;-74
2022/10/02 01:56:53;;;;;;;14.77;2.88;;;11.70;99.90;;;;;;4927481;29;20036;-75
2022/10/02 01:59:56;;;;;;;9.18;2.70;;;11.70;99.90;;;;;;4929623;28;20089;-75
2022/10/02 02:02:41;;;;;;;11.93;3.17;;;11.70;99.90;;;;;;4895214;29;20043;-74
2022/10/02 02:05:44;;;;;;;11.63;3.13;;;11.70;99.90;;;;;;4940560;28;20492;-74
2022/10/02 02:08:21;;;;;;;10.65;3.00;;;11.70;99.90;;;;;;4945814;28;20035;-74
2022/10/02 02:11:08;;;;;;;8.98;2.78;;;11.60;99.90;;;;;;4922063;29;20405;-74
2022/10/02 02:13:56;;;;;;;11.77;3.42;;;11.60;99.90;;;;;;4919154;29;20056;-74
2022/10/02 02:16:34;;;;;;;11.73;3.00;;;11.60;99.90;;;;;;4924123;29;20047;-74
2022/10/02 02:19:24;;;;;;;14.32;3.80;;;11.60;99.90;;;;;;4909832;29;20269;-74
2022/10/02 02:22:04;;;;;;;14.70;3.72;;;11.60;99.90;;;;;;4916416;29;20061;-73
2022/10/02 02:24:38;;;;;;;9.73;3.85;;;11.60;99.90;;;;;;4927863;29;20101;-74
2022/10/02 02:27:05;;;;;;;10.75;4.07;;;11.60;99.90;;;;;;4915569;29;20048;-73
2022/10/02 02:29:36;;;;;;;17.00;4.05;;;11.50;99.90;;;;;;4925900;28;20518;-73
2022/10/02 02:32:07;;;;;;;12.40;3.63;;;11.60;99.90;;;;;;4911552;29;20268;-73
2022/10/02 02:34:49;;;;;;;12.30;3.47;;;11.50;99.90;;;;;;4913194;28;20039;-73
2022/10/02 02:37:20;;;;;;;16.13;3.95;;;11.50;99.90;;;;;;4914269;29;20384;-73
2022/10/02 02:39:55;;;;;;;11.73;3.83;;;11.50;99.90;;;;;;4928179;29;20122;-73
2022/10/02 02:42:24;;;;;;;13.75;3.97;;;11.50;99.90;;;;;;4912595;29;20117;-73
2022/10/02 02:44:57;;;;;;;10.93;4.20;;;11.50;99.90;;;;;;4921243;28;20478;-73
2022/10/02 02:47:34;;;;;;;11.77;3.40;;;11.50;99.90;;;;;;4922917;29;20062;-73
2022/10/02 02:50:07;;;;;;;15.00;3.88;;;11.50;99.90;;;;;;4909018;29;20171;-73
2022/10/02 02:53:04;;;;;;;15.35;3.63;;;11.50;99.90;;;;;;4918914;29;20044;-73
2022/10/02 02:55:34;;;;;;;18.35;4.63;;;11.50;99.90;;;;;;4934342;28;20076;-73
2022/10/02 02:58:16;;;;;;;16.00;4.85;;;11.50;99.90;;;;;;4922245;28;20036;-73
2022/10/02 03:00:42;;;;;;;14.70;4.72;;;11.50;99.90;;;;;;4922730;29;20106;-73
2022/10/02 03:03:08;;;;;;;14.73;4.03;;;11.50;99.90;;;;;;4923727;29;20055;-73
2022/10/02 03:05:38;;;;;;;14.02;4.10;;;11.50;99.90;;;;;;4904871;29;20055;-73
2022/10/02 03:08:18;;;;;;;15.63;4.40;;;11.60;99.90;;;;;;4939839;28;20142;-73
2022/10/02 03:11:11;;;;;;;16.48;3.80;;;11.60;99.90;;;;;;4918895;29;20098;-73
2022/10/02 03:13:52;;;;;;;15.18;3.88;;;11.60;99.90;;;;;;4912078;29;20054;-73
2022/10/02 03:16:26;;;;;;;16.75;4.38;;;11.60;99.90;;;;;;4918309;29;20465;-73
2022/10/02 03:19:18;;;;;;;15.65;4.07;;;11.60;99.90;;;;;;4931017;29;20371;-73
2022/10/02 03:22:04;;;;;;;16.27;4.07;;;11.70;99.90;;;;;;4929846;29;20051;-73
2022/10/02 03:24:51;;;;;;;13.98;4.28;;;11.70;99.90;;;;;;4921688;29;20535;-73
2022/10/02 03:27:33;;;;;;;14.30;4.00;;;11.70;99.90;;;;;;4929720;29;20051;-73
2022/10/02 03:30:11;;;;;;;13.05;3.88;;;11.70;99.90;;;;;;4928809;29;20093;-73
2022/10/02 03:32:39;;;;;;;15.32;3.72;;;11.70;99.90;;;;;;4929834;29;20101;-73
2022/10/02 03:35:10;;;;;;;15.77;4.00;;;11.70;99.90;;;;;;4933020;29;20047;-73
2022/10/02 03:37:37;;;;;;;13.65;3.28;;;11.70;99.90;;;;;;4934879;29;20043;-73
2022/10/02 03:40:05;;;;;;;15.20;3.65;;;11.70;99.90;;;;;;4927456;29;20041;-73
2022/10/02 03:42:33;;;;;;;14.27;3.58;;;11.70;99.90;;;;;;4930080;29;20528;-74
2022/10/02 03:44:59;;;;;;;13.35;3.40;;;11.70;99.90;;;;;;4934134;29;20075;-74
2022/10/02 03:47:25;;;;;;;13.85;4.13;;;11.70;99.90;;;;;;4924667;29;20075;-74
2022/10/02 03:49:50;;;;;;;13.07;3.20;;;11.70;99.90;;;;;;4929129;29;20078;-73
2022/10/02 03:52:19;;;;;;;10.00;2.88;;;11.70;99.90;;;;;;4926430;29;20053;-75
2022/10/02 03:54:46;;;;;;;12.82;2.95;;;11.70;99.90;;;;;;4919722;28;20154;-73
2022/10/02 03:57:20;;;;;;;13.05;2.92;;;11.70;99.90;;;;;;4934036;29;20043;-74
2022/10/02 04:00:11;;;;;;;13.75;3.10;;;11.70;99.90;;;;;;4910717;29;20055;-75
2022/10/02 04:02:51;;;;;;;10.73;2.53;;;11.70;99.90;;;;;;4924233;29;20063;-74
2022/10/02 04:05:38;;;;;;;13.35;3.17;;;11.60;99.90;;;;;;4930206;28;20048;-74
2022/10/02 04:08:13;;;;;;;11.57;2.70;;;11.60;99.90;;;;;;4948725;28;20122;-74
2022/10/02 04:10:38;;;;;;;11.57;2.53;;;11.50;99.90;;;;;;4927869;28;20046;-75
2022/10/02 04:13:15;;;;;;;11.40;2.78;;;11.50;99.90;;;;;;4924481;29;20039;-74
2022/10/02 04:15:50;;;;;;;12.60;3.50;;;11.50;99.90;;;;;;4927928;29;20341;-74
2022/10/02 04:18:24;;;;;;;9.07;2.40;;;11.40;99.90;;;;;;4914781;29;20126;-74
2022/10/02 04:20:57;;;;;;;10.70;3.10;;;11.40;99.90;;;;;;4932798;29;20056;-74
2022/10/02 04:23:25;;;;;;;10.02;2.58;;;11.40;99.90;;;;;;4925867;29;20047;-74
2022/10/02 04:25:57;;;;;;;12.18;2.80;;;11.40;99.90;;;;;;4917828;29;20039;-74
2022/10/02 04:28:31;;;;;;;13.10;2.47;;;11.40;99.90;;;;;;4946747;28;20094;-74
2022/10/02 04:30:56;;;;;;;13.23;3.15;;;11.30;99.90;;;;;;4942487;28;20416;-74
2022/10/02 04:33:24;;;;;;;10.23;2.90;;;11.30;99.90;;;;;;4915359;28;20447;-74
2022/10/02 04:36:06;;;;;;;11.80;2.42;;;11.30;99.90;;;;;;4932545;29;20639;-74
2022/10/02 04:38:57;;;;;;;8.73;2.42;;;11.20;99.90;;;;;;4916748;29;20047;-74
2022/10/02 04:41:35;;;;;;;10.38;2.30;;;11.20;99.90;;;;;;4910204;28;20586;-74
2022/10/02 04:44:26;;;;;;;11.52;2.35;;;11.20;99.90;;;;;;4949062;28;20459;-74
2022/10/02 04:47:13;;;;;;;11.48;2.75;;;11.10;99.90;;;;;;4928571;29;20270;-74
2022/10/02 04:49:41;;;;;;;10.40;2.50;;;11.10;99.90;;;;;;4927463;29;20153;-74
2022/10/02 04:52:28;;;;;;;11.55;2.88;;;11.10;99.90;;;;;;4930671;29;20525;-74
2022/10/02 04:55:14;;;;;;;15.35;3.63;;;11.10;99.90;;;;;;4939782;28;20498;-75
2022/10/02 04:57:52;;;;;;;8.55;2.70;;;11.00;99.90;;;;;;4941231;28;20336;-74
2022/10/02 05:00:22;;;;;;;9.15;2.55;;;11.00;99.90;;;;;;4910659;29;20047;-74
2022/10/02 05:03:19;;;;;;;12.43;2.70;;;11.00;99.90;;;;;;4923317;29;20047;-75
2022/10/02 05:05:48;;;;;;;11.07;3.13;;;10.90;99.90;;;;;;4945385;28;20501;-74
2022/10/02 05:08:42;;;;;;;14.30;4.20;;;10.90;99.90;;;;;;4915426;29;20051;-74
2022/10/02 05:11:25;;;;;;;13.52;3.00;;;10.80;99.90;;;;;;4930564;28;20410;-74
2022/10/02 05:14:12;;;;;;;13.35;3.75;;;10.80;99.90;;;;;;4942111;28;20055;-74
2022/10/02 05:17:11;;;;;;;10.93;3.28;;;10.70;99.90;;;;;;4931680;28;20071;-74
2022/10/02 05:19:56;;;;;;;11.60;3.30;;;10.70;99.90;;;;;;4929807;29;20052;-74
2022/10/02 05:22:36;;;;;;;18.33;3.25;;;10.60;99.90;;;;;;4926712;29;20052;-75
2022/10/02 05:25:11;;;;;;;18.20;3.63;;;10.50;99.90;;;;;;4918825;28;20106;-74
2022/10/02 05:28:04;;;;;;;14.63;3.60;;;10.50;99.90;;;;;;4920047;29;20086;-74
2022/10/02 05:30:44;;;;;;;12.15;2.83;;;10.40;99.90;;;;;;4924492;29;20055;-74
2022/10/02 05:33:22;;;;;;;10.82;2.38;;;10.40;99.90;;;;;;4920421;28;20090;-74
2022/10/02 05:36:25;;;;;;;10.85;2.75;;;10.40;99.90;;;;;;4926240;29;20457;-75
2022/10/02 05:39:03;;;;;;;10.90;2.92;;;10.40;99.90;;;;;;4919359;29;20047;-75
2022/10/02 05:42:04;;;;;;;14.45;4.55;;;10.40;99.90;;;;;;4915388;28;20703;-74
2022/10/02 05:44:36;;;;;;;14.70;3.92;;;10.40;99.90;;;;;;4938181;28;20509;-74
2022/10/02 05:47:16;;;;;;;15.65;4.03;;;10.30;99.90;;;;;;4930448;29;20047;-74
2022/10/02 05:49:55;;;;;;;;;;;10.40;99.90;;;;;;4921214;28;20043;-74
2022/10/02 05:53:00;;;;;;;14.65;4.32;;;10.40;99.90;;;;;;4910420;29;19922;-74
2022/10/02 05:56:04;;;;;;;13.93;4.13;;;10.40;99.90;;;;;;4917142;29;20499;-74
2022/10/02 05:58:43;;;;;;;16.60;5.00;;;10.40;99.90;;;;;;4909608;29;20114;-74
2022/10/02 06:01:16;;;;;;;21.45;5.38;;;10.50;99.90;;;;;;4912038;29;20039;-74
2022/10/02 06:04:21;;;;;;;20.35;5.53;;;10.50;99.90;;;;;;4913737;29;20066;-74
2022/10/02 06:06:53;;;;;;;16.60;5.00;;;10.70;99.90;;;;;;4900209;29;20047;-74
2022/10/02 06:09:21;;;;;;;14.40;4.60;;;10.80;99.90;;;;;;4925505;29;20055;-74
2022/10/02 06:11:56;;;;;;;15.70;4.57;;;10.80;99.90;;;;;;4910487;29;20110;-74
2022/10/02 06:14:32;;;;;;;15.32;5.00;;;10.80;99.90;;;;;;4923484;29;20051;-74
2022/10/02 06:17:10;;;;;;;16.05;5.22;;;10.90;99.90;;;;;;4940422;28;20070;-74
2022/10/02 06:20:02;;;;;;;15.23;3.80;;;10.90;99.90;;;;;;4923973;29;20058;-74
2022/10/02 06:22:34;;;;;;;15.07;3.90;;;10.90;99.90;;;;;;4926247;29;20082;-75
2022/10/02 06:25:31;;;;;;;16.90;4.18;;;10.90;99.90;;;;;;4926980;28;20058;-74
2022/10/02 06:28:13;;;;;;;14.00;3.70;;;10.90;99.90;;;;;;4925124;29;20040;-74
2022/10/02 06:30:44;;;;;;;15.07;3.85;;;10.90;99.90;;;;;;4925293;29;20056;-74
2022/10/02 06:33:23;;;;;;;19.42;4.88;;;10.90;99.90;;;;;;4925719;28;20058;-74
2022/10/02 06:36:21;;;;;;;16.55;4.63;;;11.00;99.90;;;;;;4939834;29;20047;-73
2022/10/02 06:39:24;;;;;;;17.02;3.97;;;11.00;99.90;;;;;;4916423;29;20039;-73
2022/10/02 06:41:53;;;;;;;17.52;4.60;;;11.00;99.90;;;;;;4923657;29;20047;-74
2022/10/02 06:44:47;;;;;;;22.02;5.03;;;11.00;99.90;;;;;;4911997;29;20462;-74
2022/10/02 06:47:34;;;;;;;17.85;4.38;;;11.10;99.90;;;;;;4934734;29;20053;-74
2022/10/02 06:50:21;;;;;;;19.02;4.55;;;11.10;99.90;;;;;;4924774;29;20852;-74
2022/10/02 06:53:12;;;;;;;17.27;4.38;;;11.20;99.90;;;;;;4928210;29;20082;-74
2022/10/02 06:56:00;;;;;;;15.52;3.90;;;11.20;99.90;;;;;;4935207;29;20808;-74
2022/10/02 06:58:44;;;;;;;20.98;4.07;;;11.30;99.90;;;;;;4923786;29;20051;-74
2022/10/02 07:01:23;;;;;;;15.10;3.97;;;11.40;99.90;;;;;;4915412;29;20055;-74
2022/10/02 07:04:15;;;;;;;17.80;3.83;;;11.40;99.90;;;;;;4938986;29;20051;-74
2022/10/02 07:06:56;;;;;;;17.38;4.25;;;11.50;99.90;;;;;;4910869;28;20753;-74
2022/10/02 07:09:56;;;;;;;17.30;3.40;;;11.60;99.90;;;;;;4928778;29;20054;-74
2022/10/02 07:12:36;;;;;;;14.18;3.63;;;11.70;99.90;;;;;;4930509;28;20129;-74
2022/10/02 07:15:38;;;;;;;15.35;3.83;;;11.90;99.90;;;;;;4931618;29;21198;-74
2022/10/02 07:18:24;;;;;;;16.95;4.93;;;12.00;99.90;;;;;;4929658;29;20042;-74
2022/10/02 07:21:10;;;;;;;17.08;4.93;;;12.10;99.90;;;;;;4915767;28;20057;-74
2022/10/02 07:24:11;;;;;;;12.93;3.38;;;12.30;99.90;;;;;;4930706;29;20067;-74
2022/10/02 07:26:51;;;;;;;16.85;4.05;;;12.40;99.90;;;;;;4916734;29;20062;-74
2022/10/02 07:29:24;;;;;;;16.48;3.55;;;12.50;99.90;;;;;;4926004;29;20035;-74
2022/10/02 07:32:58;;;;;;;15.52;3.70;;;12.60;99.90;;;;;;4916574;28;20042;-74
2022/10/02 07:35:36;;;;;;;19.67;4.03;;;12.60;99.90;;;;;;4887468;29;20871;-73
2022/10/02 07:38:43;;;;;;;16.13;4.40;;;12.60;99.90;;;;;;4934648;29;20058;-75
2022/10/02 07:41:47;;;;;;;22.48;4.80;;;12.70;99.90;;;;;;4896957;29;20171;-75
2022/10/02 07:44:34;;;;;;;16.42;3.88;;;12.70;99.90;;;;;;4931659;29;20458;-74
2022/10/02 07:47:00;;;;;;;20.95;4.43;;;12.60;99.90;;;;;;4928139;29;20653;-75
2022/10/02 07:49:45;;;;;;;14.82;4.07;;;12.60;99.90;;;;;;4913004;29;20085;-74
2022/10/02 07:52:40;;;;;;;11.40;3.55;;;12.60;99.90;;;;;;4946838;28;20047;-74
2022/10/02 07:55:20;;;;;;;16.52;4.13;;;12.60;99.90;;;;;;4897190;28;20051;-75
2022/10/02 07:58:09;;;;;;;13.07;4.03;;;12.70;99.90;;;;;;4914852;28;20051;-75
2022/10/02 08:00:47;;;;;;;14.02;3.60;;;12.90;99.90;;;;;;4919712;28;20108;-74
2022/10/02 08:03:24;;;;;;;12.98;3.42;;;13.10;99.90;;;;;;4929236;28;20079;-75
2022/10/02 08:05:55;;;;;;;16.88;3.45;;;13.30;99.90;;;;;;4926649;28;20355;-74
2022/10/02 08:08:27;;;;;;;16.17;3.70;;;13.60;99.90;;;;;;4899598;28;20410;-75
2022/10/02 08:11:04;;;;;;;17.35;4.03;;;13.90;99.90;;;;;;4927353;28;20052;-75
2022/10/02 08:13:54;;;;;;;12.93;3.33;;;14.00;99.90;;;;;;4930785;28;20131;-75
2022/10/02 08:16:25;;;;;;;18.42;3.50;;;14.10;99.90;;;;;;4923422;28;20047;-75
2022/10/02 08:19:11;;;;;;;10.27;2.60;;;14.20;99.90;;;;;;4944183;28;20040;-75
2022/10/02 08:21:46;;;;;;;17.38;3.78;;;14.30;99.90;;;;;;4912786;28;20624;-75
2022/10/02 08:24:39;;;;;;;16.08;3.28;;;14.50;99.90;;;;;;4913010;28;20051;-75
2022/10/02 08:27:18;;;;;;;13.23;2.97;;;14.80;99.90;;;;;;4923253;28;20054;-75
2022/10/02 08:30:13;;;;;;;14.18;3.22;;;15.00;99.90;;;;;;4914127;28;20047;-75
2022/10/02 08:32:39;;;;;;;11.82;2.83;;;15.00;99.90;;;;;;4929901;29;20051;-75
2022/10/02 08:35:13;;;;;;;10.93;2.72;;;15.10;99.90;;;;;;4932961;28;20402;-75
2022/10/02 08:38:29;;;;;;;15.73;2.75;;;15.30;99.90;;;;;;4905994;29;20042;-75
2022/10/02 08:41:17;;;;;;;13.20;3.08;;;15.50;99.90;;;;;;4887786;28;20055;-75
2022/10/02 08:44:07;;;;;;;14.13;2.90;;;15.70;99.90;;;;;;4947525;28;20051;-75
2022/10/02 08:47:16;;;;;;;13.02;3.13;;;15.90;99.90;;;;;;4930501;28;20089;-75
2022/10/02 08:50:00;;;;;;;10.27;2.75;;;16.10;99.90;;;;;;4923478;29;20106;-75
2022/10/02 08:52:49;;;;;;;13.27;2.95;;;16.30;99.90;;;;;;4941009;28;20043;-75
2022/10/02 08:55:53;;;;;;;8.43;2.38;;;16.30;99.90;;;;;;4916237;29;20178;-75
2022/10/02 08:58:30;;;;;;;10.15;2.85;;;16.40;99.90;;;;;;4913394;29;20079;-75
2022/10/02 09:01:32;;;;;;;10.85;2.45;;;16.40;99.90;;;;;;4913493;29;20048;-75
2022/10/02 09:04:36;;;;;;;12.85;2.58;;;16.40;99.90;;;;;;4904335;29;20471;-75
2022/10/02 09:07:28;;;;;;;13.82;3.45;;;16.40;99.90;;;;;;4921777;29;20047;-74
2022/10/02 09:10:44;;;;;;;12.32;2.80;;;16.50;99.90;;;;;;4936553;29;20055;-75
2022/10/02 09:13:21;;;;;;;15.20;3.47;;;16.50;99.90;;;;;;4846108;29;20125;-75
2022/10/02 09:16:09;;;;;;;14.77;3.08;;;16.40;99.90;;;;;;4842004;29;20083;-76
2022/10/02 09:18:50;;;;;;;12.65;2.70;;;16.40;99.90;;;;;;4895344;29;20533;-75
2022/10/02 09:21:30;;;;;;;14.57;3.30;;;16.30;99.90;;;;;;4934831;29;20604;-75
2022/10/02 09:24:11;;;;;;;14.82;3.08;;;16.40;99.90;;;;;;4901067;29;20040;-76
2022/10/02 09:27:14;;;;;;;11.95;2.53;;;16.40;99.90;;;;;;4904989;29;20191;-76
2022/10/02 09:29:55;;;;;;;16.30;3.45;;;16.50;99.90;;;;;;4900974;29;20043;-76
2022/10/02 09:32:42;;;;;;;17.85;2.90;;;16.60;99.90;;;;;;4919416;29;20067;-76
2022/10/02 09:35:27;;;;;;;12.32;3.10;;;16.60;99.90;;;;;;4916995;29;20372;-76
2022/10/02 09:38:28;;;;;;;11.75;2.40;;;16.60;99.90;;;;;;4928940;29;20051;-76
2022/10/02 09:41:14;;;;;;;10.48;2.42;;;16.60;99.90;;;;;;4858890;29;20074;-76
2022/10/02 09:44:05;;;;;;;16.30;3.47;;;16.70;99.90;;;;;;4914908;29;20242;-76
2022/10/02 09:46:55;;;;;;;13.18;2.78;;;16.70;99.90;;;;;;4902890;29;20048;-76
2022/10/02 09:49:56;;;;;;;10.95;2.45;;;16.60;99.90;;;;;;4915244;29;20056;-76
2022/10/02 09:52:44;;;;;;;15.73;3.50;;;16.50;99.90;;;;;;4929429;28;20052;-76
2022/10/02 09:55:41;;;;;;;11.15;2.92;;;16.50;99.90;;;;;;4920247;29;20380;-76
2022/10/02 09:58:19;;;;;;;15.57;3.90;;;16.50;99.90;;;;;;4924520;29;20072;-75
2022/10/02 10:01:22;;;;;;;14.80;3.40;;;16.50;99.90;;;;;;4908936;29;20044;-76
2022/10/02 10:03:48;;;;;;;19.27;3.58;;;16.30;99.90;;;;;;4919905;28;20126;-76
2022/10/02 10:06:24;;;;;;;15.65;3.35;;;16.00;99.90;;;;;;4934003;29;20070;-75
2022/10/02 10:09:16;;;;;;;13.95;3.03;;;15.80;99.90;;;;;;4927381;28;20047;-75
2022/10/02 10:12:04;;;;;;;16.95;3.83;;;15.60;99.90;;;;;;4907090;29;20061;-75
2022/10/02 10:14:47;;;;;;;10.68;2.97;;;15.50;99.90;;;;;;4934759;29;20499;-75
2022/10/02 10:17:18;;;;;;;13.18;3.17;;;15.40;99.90;;;;;;4909895;29;20083;-75
2022/10/02 10:19:58;;;;;;;20.05;4.20;;;15.40;99.90;;;;;;4915202;29;20051;-75
2022/10/02 10:22:56;;;;;;;18.33;4.00;;;15.40;99.90;;;;;;4924403;29;20051;-75
2022/10/02 10:25:50;;;;;;;14.90;2.92;;;15.40;99.90;;;;;;4928660;28;20160;-75
2022/10/02 10:28:38;;;;;;;17.00;3.08;;;15.40;99.90;;;;;;4943864;29;20043;-75
2022/10/02 10:31:27;;;;;;;17.00;3.47;;;15.40;99.90;;;;;;4921680;29;20574;-74
2022/10/02 10:34:45;;;;;;;19.33;3.20;;;15.30;99.90;;;;;;4933308;29;20051;-74
2022/10/02 10:41:02;;;;;;;13.15;2.80;;;15.10;99.90;;;;;;4929646;29;20058;-74
2022/10/02 10:43:50;;;;;;;15.43;3.70;;;15.10;99.90;;;;;;4917759;29;20494;-73
2022/10/02 10:46:31;;;;;;;16.17;3.55;;;15.20;99.90;;;;;;4934867;29;20070;-73
2022/10/02 10:49:22;;;;;;;16.77;3.55;;;15.30;99.90;;;;;;4933366;29;20043;-73
2022/10/02 10:52:15;;;;;;;12.13;2.60;;;15.50;99.90;;;;;;4927937;29;20098;-74
2022/10/02 10:55:11;;;;;;;14.40;2.95;;;15.70;99.90;;;;;;4939518;28;20078;-74
2022/10/02 10:57:46;;;;;;;12.10;3.35;;;15.90;99.90;;;;;;4922935;28;20074;-74
2022/10/02 11:00:25;;;;;;;14.32;3.42;;;16.00;99.90;;;;;;4923227;29;20048;-75
2022/10/02 11:02:58;;;;;;;11.93;3.05;;;16.20;99.90;;;;;;4922563;29;20043;-74
2022/10/02 11:05:39;;;;;;;11.07;2.40;;;16.40;99.90;;;;;;4923137;29;20067;-75
2022/10/02 11:08:17;;;;;;;12.75;2.85;;;16.60;99.90;;;;;;4929919;29;20145;-75
2022/10/02 11:11:20;;;;;;;13.13;2.97;;;16.70;99.90;;;;;;4928912;28;20062;-75
2022/10/02 11:14:08;;;;;;;12.82;3.03;;;16.80;99.90;;;;;;4942193;28;20106;-75
2022/10/02 11:17:07;;;;;;;13.50;3.17;;;16.90;99.90;;;;;;4923538;29;20063;-75
2022/10/02 11:19:42;;;;;;;12.10;2.85;;;16.80;99.90;;;;;;4922137;29;20541;-75
2022/10/02 11:22:54;;;;;;;14.80;3.55;;;16.50;99.90;;;;;;4924645;29;20051;-75
2022/10/02 11:25:26;;;;;;;10.85;2.28;;;16.30;99.90;;;;;;4917593;29;20047;-75
2022/10/02 11:28:04;;;;;;;12.68;2.70;;;16.10;99.90;;;;;;4929703;29;20474;-75
2022/10/02 11:30:37;;;;;;;14.20;3.20;;;16.00;99.90;;;;;;4926663;29;20055;-75
2022/10/02 11:33:21;;;;;;;13.98;2.75;;;15.90;99.90;;;;;;4929098;29;20460;-75
2022/10/02 11:36:17;;;;;;;12.02;3.08;;;15.70;99.90;;;;;;4923837;29;20130;-75
2022/10/02 11:39:06;;;;;;;13.43;3.08;;;15.70;99.90;;;;;;4914449;29;20055;-75
2022/10/02 11:41:58;;;;;;;13.30;3.03;;;15.70;99.90;;;;;;4920649;28;20066;-75
2022/10/02 11:44:52;;;;;;;12.05;2.33;;;15.80;99.90;;;;;;4939203;28;20044;-76
2022/10/02 11:47:36;;;;;;;12.25;2.88;;;15.90;99.90;;;;;;4943361;28;20193;-76
2022/10/02 11:50:28;;;;;;;13.20;3.08;;;16.20;99.90;;;;;;4935541;28;20130;-75
2022/10/02 11:53:10;;;;;;;14.88;2.95;;;16.40;99.90;;;;;;4923671;28;20136;-75
2022/10/02 11:56:11;;;;;;;12.18;2.95;;;16.60;99.90;;;;;;4923250;29;20125;-75
2022/10/02 11:58:47;;;;;;;10.65;2.40;;;16.80;99.90;;;;;;4895362;29;20505;-75
2022/10/02 12:01:20;;;;;;;12.65;2.88;;;16.90;99.90;;;;;;4919041;28;20075;-75
2022/10/02 12:04:08;;;;;;;10.20;2.33;;;17.10;99.90;;;;;;4919414;29;20090;-75
2022/10/02 12:07:05;;;;;;;9.77;1.98;;;17.30;99.90;;;;;;4918040;29;20047;-73
2022/10/02 12:09:58;;;;;;;10.95;2.88;;;17.50;99.90;;;;;;4928870;29;20106;-73
2022/10/02 12:12:50;;;;;;;13.43;2.83;;;17.60;99.90;;;;;;4921413;28;20537;-74
2022/10/02 12:15:53;;;;;;;12.60;3.38;;;17.60;99.90;;;;;;4939908;28;20055;-74
2022/10/02 12:18:26;;;;;;;12.15;2.72;;;17.40;99.90;;;;;;4930050;28;20047;-74
2022/10/02 12:27:31;;;;;;;12.15;2.63;;;16.60;99.90;;;;;;4936181;28;20458;-74
2022/10/02 12:30:07;;;;;;;12.95;2.83;;;16.40;99.90;;;;;;4923229;28;20066;-74
2022/10/02 12:32:51;;;;;;;17.08;2.92;;;16.40;99.90;;;;;;4917026;29;20059;-74
2022/10/02 12:35:35;;;;;;;9.93;2.15;;;16.40;99.90;;;;;;4916046;29;20079;-74
2022/10/02 12:38:16;;;;;;;12.40;2.53;;;16.40;99.90;;;;;;4919030;28;20490;-75
2022/10/02 12:40:44;;;;;;;12.75;2.85;;;16.50;99.90;;;;;;4923739;29;20051;-74
2022/10/02 12:43:33;;;;;;;12.27;2.17;;;16.50;99.90;;;;;;4933478;28;20505;-75
2022/10/02 12:46:21;;;;;;;9.02;2.30;;;16.50;99.90;;;;;;4936271;28;20051;-75
2022/10/02 12:49:21;;;;;;;11.00;2.15;;;16.50;99.90;;;;;;4935878;28;20135;-75
2022/10/02 12:52:05;;;;;;;7.05;1.88;;;16.70;99.90;;;;;;4931792;28;20055;-75
2022/10/02 12:55:11;;;;;;;9.88;2.20;;;16.80;99.90;;;;;;4910757;28;20067;-75
2022/10/02 12:58:12;;;;;;;12.35;2.35;;;16.80;99.90;;;;;;4935815;28;20046;-75
2022/10/02 13:00:49;;;;;;;10.85;2.65;;;16.80;99.90;;;;;;4894393;29;20063;-75
2022/10/02 13:03:46;;;;;;;12.75;2.92;;;16.60;99.90;;;;;;4920813;29;20656;-75
2022/10/02 13:06:15;;;;;;;13.32;2.85;;;16.50;99.90;;;;;;4910512;29;20044;-75
2022/10/02 13:09:01;;;;;;;11.85;2.42;;;16.30;99.90;;;;;;4935540;28;20055;-75
2022/10/02 13:11:51;;;;;;;11.57;2.47;;;16.30;99.90;;;;;;4918217;29;20052;-75
2022/10/02 13:14:33;;;;;;;12.98;2.45;;;16.40;99.90;;;;;;4925818;29;20186;-75
2022/10/02 13:17:21;;;;;;;11.43;2.75;;;16.50;99.90;;;;;;4932342;28;20439;-75
2022/10/02 13:20:25;;;;;;;8.93;2.30;;;16.70;99.90;;;;;;4925520;29;20444;-75
2022/10/02 13:23:23;;;;;;;12.43;2.40;;;16.80;99.90;;;;;;4906674;29;20090;-75
2022/10/02 13:25:53;;;;;;;7.75;1.67;;;17.00;99.90;;;;;;4886588;29;20051;-75
2022/10/02 13:28:37;;;;;;;7.63;1.75;;;17.00;99.90;;;;;;4914908;28;20051;-75
2022/10/02 13:31:23;;;;;;;7.90;1.70;;;17.00;99.90;;;;;;4924352;29;20051;-75
2022/10/02 13:33:58;;;;;;;9.65;2.15;;;17.00;99.90;;;;;;4920593;29;20043;-74
2022/10/02 13:36:43;;;;;;;11.45;2.15;;;17.00;99.90;;;;;;4919065;28;20058;-75
2022/10/02 13:39:21;;;;;;;11.23;2.20;;;16.90;99.90;;;;;;4928367;29;20521;-74
2022/10/02 13:42:13;;;;;;;10.02;2.30;;;17.00;99.90;;;;;;4918997;29;20409;-75
2022/10/02 13:44:57;;;;;;;8.57;1.92;;;17.00;99.90;;;;;;4918633;29;20042;-75
2022/10/02 13:47:45;;;;;;;8.27;1.85;;;17.10;99.90;;;;;;4928293;28;20048;-74
2022/10/02 13:50:29;;;;;;;11.27;2.58;;;17.20;99.90;;;;;;4911307;29;20043;-74
2022/10/02 13:53:32;;;;;;;10.38;2.83;;;17.20;99.90;;;;;;4931035;28;20126;-74
2022/10/02 13:56:07;;;;;;;11.60;2.50;;;17.10;99.90;;;;;;4917915;29;20273;-75
2022/10/02 13:58:54;;;;;;;13.43;2.63;;;16.90;99.90;;;;;;4938551;28;20146;-75
2022/10/02 14:01:39;;;;;;;9.88;2.35;;;16.70;99.90;;;;;;4916008;29;20048;-75
2022/10/02 14:04:27;;;;;;;9.55;2.40;;;16.60;99.90;;;;;;4915138;29;20662;-74
2022/10/02 14:07:04;;;;;;;12.25;2.60;;;16.40;99.90;;;;;;4922355;28;20090;-75
2022/10/02 14:09:51;;;;;;;13.82;3.05;;;16.20;99.90;;;;;;4929558;28;20102;-74